createdAt,value
2023-02-06T00:00:12.358Z,31.90
2023-02-06T00:02:50.039Z,17.40
2023-02-06T00:05:28.081Z,31.90
2023-02-06T00:08:07.521Z,36.90
2023-02-06T00:10:46.076Z,36.60
2023-02-06T00:13:21.507Z,34.30
2023-02-06T00:15:59.869Z,32.40
2023-02-06T00:18:37.599Z,38.90
2023-02-06T00:21:15.582Z,39.90
2023-02-06T00:23:53.968Z,44.40
2023-02-06T00:26:33.338Z,37.50
2023-02-06T00:29:13.329Z,35.10
2023-02-06T00:31:51.346Z,32.40
2023-02-06T00:34:29.217Z,40.30
2023-02-06T00:37:07.771Z,36.10
2023-02-06T00:39:54.376Z,35.50
2023-02-06T00:42:32.756Z,35.50
2023-02-06T00:45:11.697Z,31.90
2023-02-06T00:47:49.747Z,36.00
2023-02-06T00:50:20.372Z,33.00
2023-02-06T00:52:54.635Z,36.40
2023-02-06T00:55:33.641Z,42.00
2023-02-06T00:58:13.450Z,38.40
2023-02-06T01:00:51.329Z,39.70
2023-02-06T01:03:30.118Z,26.90
2023-02-06T01:06:09.929Z,39.50
2023-02-06T01:08:48.014Z,37.50
2023-02-06T01:11:27.822Z,34.10
2023-02-06T01:15:28.637Z,34.90
2023-02-06T01:18:06.932Z,33.60
2023-02-06T01:20:44.901Z,25.70
2023-02-06T01:23:15.724Z,45.20
2023-02-06T01:25:54.565Z,50.20
2023-02-06T01:28:25.685Z,36.00
2023-02-06T01:30:57.108Z,44.30
2023-02-06T01:33:35.573Z,33.40
2023-02-06T01:36:13.711Z,36.40
2023-02-06T01:38:52.055Z,32.80
2023-02-06T01:41:29.904Z,38.90
2023-02-06T01:44:23.272Z,30.90
2023-02-06T01:46:59.060Z,17.80
2023-02-06T01:52:31.981Z,20.90
2023-02-06T01:55:10.820Z,38.20
2023-02-06T01:57:49.387Z,36.90
2023-02-06T02:00:21.083Z,36.80
2023-02-06T02:02:57.009Z,36.80
2023-02-06T02:05:36.287Z,39.80
2023-02-06T02:08:27.369Z,40.40
2023-02-06T02:11:02.762Z,29.40
2023-02-06T02:13:38.882Z,34.10
2023-02-06T02:16:45.038Z,35.00
2023-02-06T02:19:42.617Z,34.50
2023-02-06T02:22:57.990Z,47.10
2023-02-06T02:26:17.096Z,46.60
2023-02-06T02:29:34.594Z,37.40
2023-02-06T02:32:40.758Z,39.90
2023-02-06T02:35:53.766Z,40.90
2023-02-06T02:38:46.016Z,37.20
2023-02-06T02:41:35.201Z,36.50
2023-02-06T02:44:23.336Z,34.70
2023-02-06T02:46:59.731Z,22.70
2023-02-06T02:52:13.103Z,39.90
2023-02-06T02:54:50.556Z,42.70
2023-02-06T02:57:31.518Z,40.00
2023-02-06T03:00:10.433Z,35.20
2023-02-06T03:02:50.903Z,39.70
2023-02-06T03:05:29.834Z,35.00
2023-02-06T03:08:46.520Z,42.00
2023-02-06T03:11:26.172Z,36.80
2023-02-06T03:14:16.697Z,36.70
2023-02-06T03:17:00.254Z,39.20
2023-02-06T03:19:42.412Z,43.40
2023-02-06T03:22:18.457Z,41.10
2023-02-06T03:24:56.524Z,32.30
2023-02-06T03:27:35.996Z,38.50
2023-02-06T03:30:19.057Z,38.00
2023-02-06T03:33:03.466Z,48.20
2023-02-06T03:35:39.314Z,53.70
2023-02-06T03:38:16.930Z,45.40
2023-02-06T03:40:57.262Z,43.90
2023-02-06T03:43:36.166Z,44.50
2023-02-06T03:46:17.092Z,40.30
2023-02-06T03:48:57.545Z,37.70
2023-02-06T03:51:48.752Z,41.80
2023-02-06T03:54:24.333Z,42.60
2023-02-06T03:57:02.237Z,39.80
2023-02-06T03:59:37.953Z,41.30
2023-02-06T04:02:16.935Z,44.70
2023-02-06T04:04:55.111Z,49.80
2023-02-06T04:07:36.377Z,46.00
2023-02-06T04:10:15.119Z,46.30
2023-02-06T04:12:53.550Z,43.20
2023-02-06T04:15:24.315Z,41.50
2023-02-06T04:18:00.505Z,31.30
2023-02-06T04:20:41.350Z,43.40
2023-02-06T04:23:19.303Z,42.80
2023-02-06T04:25:57.448Z,35.70
2023-02-06T04:28:35.737Z,48.70
2023-02-06T04:31:06.130Z,47.10
2023-02-06T04:33:38.375Z,52.20
2023-02-06T04:36:17.233Z,44.90
2023-02-06T04:38:55.259Z,44.00
2023-02-06T04:41:26.561Z,43.30
2023-02-06T04:44:05.122Z,40.90
2023-02-06T04:46:41.146Z,40.10
2023-02-06T04:49:19.237Z,40.70
2023-02-06T04:51:56.965Z,36.90
2023-02-06T04:54:35.688Z,42.10
2023-02-06T04:57:06.282Z,42.50
2023-02-06T04:59:40.493Z,41.30
2023-02-06T05:02:19.578Z,42.70
2023-02-06T05:04:57.408Z,43.70
2023-02-06T05:07:35.264Z,52.00
2023-02-06T05:10:15.129Z,48.70
2023-02-06T05:12:52.779Z,43.90
2023-02-06T05:15:30.175Z,48.00
2023-02-06T05:18:08.825Z,38.60
2023-02-06T05:20:46.532Z,35.70
2023-02-06T05:23:25.144Z,39.00
2023-02-06T05:26:03.421Z,39.50
2023-02-06T05:28:40.630Z,42.80
2023-02-06T05:31:11.411Z,36.90
2023-02-06T05:35:39.615Z,48.40
2023-02-06T05:38:17.913Z,43.10
2023-02-06T05:40:57.024Z,55.80
2023-02-06T05:47:01.042Z,47.50
2023-02-06T05:49:40.229Z,51.90
2023-02-06T05:52:17.844Z,45.20
2023-02-06T05:54:55.330Z,42.80
2023-02-06T05:57:32.454Z,45.00
2023-02-06T06:00:11.532Z,47.50
2023-02-06T06:02:42.884Z,49.40
2023-02-06T06:05:21.779Z,45.40
2023-02-06T06:11:35.619Z,49.40
2023-02-06T06:16:58.765Z,59.20
2023-02-06T06:19:34.739Z,50.60
2023-02-06T06:22:11.919Z,42.80
2023-02-06T06:26:19.616Z,42.70
2023-02-06T06:28:58.223Z,42.70
2023-02-06T06:31:35.639Z,45.60
2023-02-06T06:34:13.567Z,38.30
2023-02-06T06:36:52.183Z,36.70
2023-02-06T06:39:30.445Z,36.00
2023-02-06T06:42:09.343Z,17.70
2023-02-06T06:44:46.665Z,47.60
2023-02-06T06:47:22.425Z,51.10
2023-02-06T06:50:01.454Z,41.70
2023-02-06T06:52:38.995Z,46.90
2023-02-06T06:55:16.102Z,45.70
2023-02-06T06:57:48.159Z,40.90
2023-02-06T07:00:24.063Z,46.80
2023-02-06T07:03:02.609Z,45.90
2023-02-06T07:05:42.368Z,27.20
2023-02-06T07:08:21.224Z,33.80
2023-02-06T07:10:59.968Z,45.00
2023-02-06T07:13:37.109Z,43.50
2023-02-06T07:16:16.076Z,47.90
2023-02-06T07:18:49.231Z,41.80
2023-02-06T07:21:28.246Z,61.50
2023-02-06T07:24:08.622Z,59.60
2023-02-06T07:26:46.363Z,57.40
2023-02-06T07:29:24.666Z,55.00
2023-02-06T07:32:02.627Z,44.10
2023-02-06T07:34:41.013Z,40.70
2023-02-06T07:37:18.947Z,44.00
2023-02-06T07:39:51.118Z,20.10
2023-02-06T07:42:27.842Z,35.60
2023-02-06T07:45:05.382Z,37.60
2023-02-06T07:47:44.315Z,18.10
2023-02-06T07:50:22.907Z,22.60
2023-02-06T07:53:00.640Z,43.20
2023-02-06T07:55:39.679Z,47.90
2023-02-06T07:58:17.400Z,39.80
2023-02-06T08:00:55.750Z,35.20
2023-02-06T08:03:35.762Z,39.90
2023-02-06T08:06:18.109Z,27.40
2023-02-06T08:11:38.121Z,24.70
2023-02-06T08:14:08.795Z,24.70
2023-02-06T08:16:46.821Z,31.50
2023-02-06T08:19:24.542Z,38.70
2023-02-06T08:22:02.282Z,37.00
2023-02-06T08:24:39.752Z,30.10
2023-02-06T08:27:10.414Z,33.00
2023-02-06T08:29:46.077Z,36.30
2023-02-06T08:32:24.403Z,21.40
2023-02-06T08:35:02.470Z,36.50
2023-02-06T08:37:41.466Z,23.00
2023-02-06T08:40:19.412Z,33.90
2023-02-06T08:42:56.942Z,30.80
2023-02-06T08:45:34.853Z,27.70
2023-02-06T08:48:13.522Z,32.60
2023-02-06T08:50:51.112Z,24.40
2023-02-06T08:53:31.330Z,16.60
2023-02-06T08:56:16.838Z,27.40
2023-02-06T08:58:54.910Z,31.00
2023-02-06T09:01:35.724Z,24.90
2023-02-06T09:04:15.845Z,23.70
2023-02-06T09:06:54.783Z,25.30
2023-02-06T09:09:34.204Z,29.40
2023-02-06T09:12:13.237Z,23.00
2023-02-06T09:14:50.827Z,23.80
2023-02-06T09:17:32.256Z,18.40
2023-02-06T09:20:11.616Z,25.00
2023-02-06T09:22:49.638Z,27.00
2023-02-06T09:25:27.732Z,30.50
2023-02-06T09:28:06.132Z,27.00
2023-02-06T09:30:45.529Z,27.60
2023-02-06T09:33:24.408Z,25.90
2023-02-06T09:36:17.107Z,27.90
2023-02-06T09:38:58.601Z,29.00
2023-02-06T09:41:48.246Z,28.40
2023-02-06T09:44:58.974Z,27.40
2023-02-06T09:47:48.514Z,29.60
2023-02-06T09:50:25.979Z,30.60
2023-02-06T09:53:08.939Z,24.10
2023-02-06T09:55:53.264Z,12.90
2023-02-06T09:58:51.126Z,20.80
2023-02-06T10:01:39.484Z,15.80
2023-02-06T10:04:39.881Z,26.90
2023-02-06T10:08:11.937Z,25.40
2023-02-06T10:11:02.874Z,21.40
2023-02-06T10:13:50.551Z,12.80
2023-02-06T10:16:55.467Z,22.30
2023-02-06T10:20:17.272Z,26.10
2023-02-06T10:23:39.262Z,22.40
2023-02-06T10:26:20.655Z,22.80
2023-02-06T10:29:05.241Z,26.10
2023-02-06T10:32:16.532Z,27.10
2023-02-06T10:35:10.203Z,22.90
2023-02-06T10:38:29.845Z,20.80
2023-02-06T10:41:42.301Z,23.30
2023-02-06T10:44:51.244Z,22.10
2023-02-06T10:47:56.580Z,23.10
2023-02-06T10:50:48.555Z,21.30
2023-02-06T10:53:37.277Z,25.20
2023-02-06T10:56:18.898Z,22.30
2023-02-06T10:59:21.866Z,25.40
2023-02-06T11:02:16.293Z,21.90
2023-02-06T11:05:07.634Z,19.70
2023-02-06T11:07:46.922Z,23.40
2023-02-06T11:10:27.880Z,19.90
2023-02-06T11:13:33.386Z,24.40
2023-02-06T11:16:17.419Z,22.80
2023-02-06T11:18:58.210Z,21.00
2023-02-06T11:21:59.531Z,22.70
2023-02-06T11:24:32.730Z,18.40
2023-02-06T11:27:24.217Z,25.50
2023-02-06T11:29:54.957Z,24.90
2023-02-06T11:32:55.755Z,28.40
2023-02-06T11:35:55.064Z,15.70
2023-02-06T11:38:32.718Z,16.40
2023-02-06T11:41:23.017Z,22.80
2023-02-06T11:44:07.052Z,26.90
2023-02-06T11:46:49.151Z,26.30
2023-02-06T11:49:31.037Z,24.40
2023-02-06T11:52:28.022Z,35.30
2023-02-06T11:55:09.265Z,30.40
2023-02-06T11:58:03.682Z,32.70
2023-02-06T12:00:39.102Z,24.90
2023-02-06T12:04:17.648Z,29.90
2023-02-06T12:07:23.103Z,26.70
2023-02-06T12:09:53.577Z,31.80
2023-02-06T12:12:45.374Z,27.00
2023-02-06T12:15:45.825Z,24.80
2023-02-06T12:18:36.144Z,31.20
2023-02-06T12:21:50.573Z,16.60
2023-02-06T12:24:50.117Z,35.30
2023-02-06T12:27:32.221Z,30.00
2023-02-06T12:30:35.749Z,33.60
2023-02-06T12:33:42.317Z,24.40
2023-02-06T12:36:37.765Z,27.30
2023-02-06T12:39:25.061Z,37.90
2023-02-06T12:42:41.437Z,28.10
2023-02-06T12:45:50.184Z,26.20
2023-02-06T12:48:59.840Z,33.70
2023-02-06T12:51:54.112Z,27.80
2023-02-06T12:54:49.353Z,27.00
2023-02-06T12:57:33.188Z,26.40
2023-02-06T13:00:46.406Z,22.10
2023-02-06T13:03:57.126Z,23.50
2023-02-06T13:06:55.974Z,34.30
2023-02-06T13:09:43.173Z,31.90
2023-02-06T13:15:22.839Z,29.80
2023-02-06T13:17:58.849Z,34.80
2023-02-06T13:20:56.234Z,32.00
2023-02-06T13:23:28.299Z,20.90
2023-02-06T13:25:59.162Z,27.00
2023-02-06T13:28:48.338Z,24.40
2023-02-06T13:31:32.837Z,31.70
2023-02-06T13:34:18.020Z,16.90
2023-02-06T13:36:57.056Z,20.80
2023-02-06T13:39:37.816Z,25.10
2023-02-06T13:42:45.607Z,20.50
2023-02-06T13:45:47.594Z,28.00
2023-02-06T13:49:24.974Z,34.10
2023-02-06T13:53:03.801Z,26.80
2023-02-06T13:56:16.977Z,26.30
2023-02-06T13:59:01.050Z,31.80
2023-02-06T14:01:37.811Z,28.40
2023-02-06T14:04:24.944Z,25.60
2023-02-06T14:07:32.157Z,27.30
2023-02-06T14:10:36.639Z,26.00
2023-02-06T14:13:16.963Z,23.70
2023-02-06T14:16:19.005Z,28.10
2023-02-06T14:19:27.719Z,21.10
2023-02-06T14:22:28.653Z,20.80
2023-02-06T14:25:37.204Z,21.40
2023-02-06T14:28:58.136Z,24.50
2023-02-06T14:32:05.349Z,31.80
2023-02-06T14:35:18.068Z,31.20
2023-02-06T14:38:32.314Z,29.80
2023-02-06T14:41:12.077Z,26.80
2023-02-06T14:43:53.453Z,14.80
2023-02-06T14:46:33.091Z,39.20
2023-02-06T14:49:19.206Z,42.30
2023-02-06T14:51:56.737Z,31.60
2023-02-06T14:54:38.821Z,39.90
2023-02-06T14:57:28.507Z,37.80
2023-02-06T15:00:15.570Z,42.60
2023-02-06T15:03:08.381Z,43.20
2023-02-06T15:05:46.884Z,38.50
2023-02-06T15:08:28.687Z,51.50
2023-02-06T15:11:08.559Z,47.90
2023-02-06T15:13:53.535Z,51.60
2023-02-06T15:16:31.844Z,43.10
2023-02-06T15:19:39.691Z,42.50
2023-02-06T15:22:33.920Z,45.60
2023-02-06T15:25:35.252Z,46.70
2023-02-06T15:28:17.470Z,43.70
2023-02-06T15:31:04.311Z,44.00
2023-02-06T15:33:45.121Z,47.90
2023-02-06T15:36:40.020Z,50.70
2023-02-06T15:39:18.770Z,44.30
2023-02-06T15:41:57.942Z,46.50
2023-02-06T15:44:38.915Z,46.20
2023-02-06T15:47:18.824Z,52.10
2023-02-06T15:50:01.467Z,55.80
2023-02-06T15:52:43.500Z,49.50
2023-02-06T15:55:32.401Z,50.80
2023-02-06T15:58:07.150Z,57.70
2023-02-06T16:00:40.885Z,54.30
2023-02-06T16:03:23.469Z,58.60
2023-02-06T16:06:00.489Z,58.30
2023-02-06T16:08:39.622Z,65.50
2023-02-06T16:11:36.781Z,71.30
2023-02-06T16:14:32.025Z,68.40
2023-02-06T16:17:42.616Z,62.80
2023-02-06T16:20:41.333Z,48.60
2023-02-06T16:23:33.943Z,61.20
2023-02-06T16:26:25.816Z,58.80
2023-02-06T16:29:31.637Z,67.80
2023-02-06T16:32:22.705Z,74.10
2023-02-06T16:35:01.776Z,55.80
2023-02-06T16:37:39.644Z,70.50
2023-02-06T16:40:18.832Z,76.00
2023-02-06T16:42:56.552Z,71.80
2023-02-06T16:45:34.306Z,68.10
2023-02-06T16:48:12.443Z,59.60
2023-02-06T16:50:44.858Z,62.90
2023-02-06T16:53:26.597Z,72.00
2023-02-06T16:56:03.211Z,65.80
2023-02-06T16:58:42.037Z,64.70
2023-02-06T17:01:25.969Z,62.30
2023-02-06T17:04:01.726Z,61.60
2023-02-06T17:06:40.411Z,60.30
2023-02-06T17:09:21.519Z,66.90
2023-02-06T17:11:59.442Z,73.50
2023-02-06T17:14:38.852Z,69.20
2023-02-06T17:17:21.416Z,66.40
2023-02-06T17:20:00.523Z,58.70
2023-02-06T17:22:39.014Z,60.60
2023-02-06T17:25:17.249Z,64.30
2023-02-06T17:27:49.771Z,43.10
2023-02-06T17:30:29.738Z,62.90
2023-02-06T17:33:10.649Z,56.70
2023-02-06T17:35:50.236Z,45.40
2023-02-06T17:38:27.721Z,69.20
2023-02-06T17:41:06.018Z,69.70
2023-02-06T17:43:45.641Z,54.90
2023-02-06T17:46:23.702Z,49.90
2023-02-06T17:49:03.970Z,51.60
2023-02-06T17:51:44.386Z,62.10
2023-02-06T17:54:22.828Z,55.90
2023-02-06T17:57:00.721Z,65.80
2023-02-06T17:59:39.002Z,70.80
2023-02-06T18:02:19.277Z,58.60
2023-02-06T18:04:57.537Z,50.50
2023-02-06T18:07:32.103Z,82.20
2023-02-06T18:12:43.862Z,73.90
2023-02-06T18:15:22.901Z,47.30
2023-02-06T18:18:02.156Z,64.80
2023-02-06T18:20:41.458Z,58.00
2023-02-06T18:23:21.160Z,65.20
2023-02-06T18:26:02.867Z,39.80
2023-02-06T18:28:40.994Z,63.20
2023-02-06T18:31:30.214Z,56.20
2023-02-06T18:34:08.569Z,65.80
2023-02-06T18:36:45.039Z,73.00
2023-02-06T18:39:23.468Z,73.40
2023-02-06T18:42:20.135Z,68.00
2023-02-06T18:44:58.343Z,59.70
2023-02-06T18:47:32.042Z,65.80
2023-02-06T18:50:05.942Z,30.10
2023-02-06T18:52:44.219Z,57.10
2023-02-06T18:55:22.094Z,66.00
2023-02-06T18:57:59.765Z,38.20
2023-02-06T19:00:39.226Z,69.10
2023-02-06T19:03:17.010Z,59.60
2023-02-06T19:05:55.634Z,55.20
2023-02-06T19:08:33.548Z,54.00
2023-02-06T19:11:12.478Z,37.10
2023-02-06T19:13:44.534Z,52.30
2023-02-06T19:16:23.559Z,54.10
2023-02-06T19:19:01.838Z,38.80
2023-02-06T19:21:39.986Z,34.00
2023-02-06T19:24:20.730Z,52.60
2023-02-06T19:26:59.222Z,46.00
2023-02-06T19:29:35.477Z,51.00
2023-02-06T19:32:12.304Z,45.90
2023-02-06T19:34:47.159Z,45.90
2023-02-06T19:37:25.598Z,24.40
2023-02-06T19:40:03.281Z,30.40
2023-02-06T19:42:40.906Z,34.50
2023-02-06T19:45:18.580Z,35.50
2023-02-06T19:47:57.713Z,27.40
2023-02-06T19:50:36.327Z,16.80
2023-02-06T19:53:16.780Z,39.70
2023-02-06T19:55:55.764Z,42.10
2023-02-06T19:58:33.704Z,38.20
2023-02-06T20:01:19.978Z,41.70
2023-02-06T20:03:57.829Z,36.00
2023-02-06T20:06:36.866Z,33.20
2023-02-06T20:09:16.485Z,28.10
2023-02-06T20:11:54.572Z,36.80
2023-02-06T20:14:32.134Z,35.20
2023-02-06T20:17:10.797Z,33.60
2023-02-06T20:19:41.264Z,32.00
2023-02-06T20:22:22.523Z,27.60
2023-02-06T20:25:00.592Z,32.50
2023-02-06T20:27:31.261Z,34.00
2023-02-06T20:30:04.279Z,35.40
2023-02-06T20:32:42.776Z,39.80
2023-02-06T20:35:21.211Z,44.70
2023-02-06T20:37:51.413Z,37.10
2023-02-06T20:40:29.712Z,36.90
2023-02-06T20:43:07.634Z,32.60
2023-02-06T20:45:46.649Z,33.40
2023-02-06T20:48:24.742Z,35.70
2023-02-06T20:51:07.711Z,36.10
2023-02-06T20:53:46.500Z,16.00
2023-02-06T20:56:24.945Z,42.00
2023-02-06T20:59:06.380Z,41.30
2023-02-06T21:01:45.164Z,34.70
2023-02-06T21:04:25.680Z,34.00
2023-02-06T21:07:04.763Z,33.50
2023-02-06T21:09:43.189Z,37.40
2023-02-06T21:12:14.335Z,35.40
2023-02-06T21:14:49.524Z,40.50
2023-02-06T21:17:27.497Z,25.20
2023-02-06T21:20:06.068Z,31.30
2023-02-06T21:22:43.955Z,27.40
2023-02-06T21:25:22.118Z,24.40
2023-02-06T21:27:53.194Z,44.30
2023-02-06T21:30:32.907Z,41.60
2023-02-06T21:33:11.635Z,38.50
2023-02-06T21:35:52.098Z,39.80
2023-02-06T21:38:32.515Z,43.10
2023-02-06T21:41:21.812Z,41.40
2023-02-06T21:43:59.223Z,40.50
2023-02-06T21:46:36.533Z,33.10
2023-02-06T21:49:14.660Z,38.40
2023-02-06T21:51:51.970Z,37.50
2023-02-06T21:54:29.780Z,40.00
2023-02-06T21:57:08.453Z,34.80
2023-02-06T21:59:46.302Z,40.10
2023-02-06T22:02:16.646Z,39.80
2023-02-06T22:04:51.485Z,50.50
2023-02-06T22:07:29.518Z,47.40
2023-02-06T22:10:10.757Z,50.50
2023-02-06T22:12:50.736Z,36.60
2023-02-06T22:15:28.695Z,36.50
2023-02-06T22:18:06.412Z,41.30
2023-02-06T22:20:43.536Z,38.70
2023-02-06T22:23:21.351Z,35.60
2023-02-06T22:25:58.941Z,29.80
2023-02-06T22:28:37.077Z,40.70
2023-02-06T22:31:16.930Z,47.40
2023-02-06T22:33:54.735Z,44.60
2023-02-06T22:36:34.126Z,35.20
2023-02-06T22:39:14.398Z,30.80
2023-02-06T22:41:52.892Z,34.20
2023-02-06T22:44:30.327Z,35.30
2023-02-06T22:47:07.109Z,27.30
2023-02-06T22:49:45.143Z,46.20
2023-02-06T22:52:36.144Z,50.50
2023-02-06T22:55:15.044Z,40.60
2023-02-06T22:57:52.268Z,37.00
2023-02-06T23:00:30.181Z,45.40
2023-02-06T23:03:00.369Z,45.80
2023-02-06T23:05:36.545Z,37.60
2023-02-06T23:08:13.015Z,38.70
2023-02-06T23:10:52.179Z,39.00
2023-02-06T23:13:30.064Z,16.90
2023-02-06T23:16:08.974Z,50.10
2023-02-06T23:18:47.054Z,25.30
2023-02-06T23:21:26.024Z,39.90
2023-02-06T23:24:03.898Z,40.10
2023-02-06T23:26:44.856Z,45.00
2023-02-06T23:29:24.228Z,31.70
2023-02-06T23:32:02.998Z,45.70
2023-02-06T23:34:41.223Z,29.60
2023-02-06T23:37:18.746Z,53.40
2023-02-06T23:39:56.981Z,53.20
2023-02-06T23:42:29.713Z,26.10
2023-02-06T23:45:07.887Z,33.50
2023-02-06T23:47:45.729Z,37.40
2023-02-06T23:50:23.169Z,49.70
2023-02-06T23:52:54.026Z,51.40
2023-02-06T23:55:30.861Z,24.40
2023-02-06T23:58:08.679Z,51.90
